createdAt,value
2023-02-03T00:00:15.404Z,1003.50
2023-02-03T00:01:15.403Z,1003.49
2023-02-03T00:02:15.453Z,1003.34
2023-02-03T00:03:15.437Z,1003.34
2023-02-03T00:04:15.364Z,1003.25
2023-02-03T00:05:15.364Z,1003.18
2023-02-03T00:06:15.345Z,1003.18
2023-02-03T00:07:15.354Z,1003.18
2023-02-03T00:08:15.346Z,1003.15
2023-02-03T00:09:15.350Z,1003.18
2023-02-03T00:10:15.308Z,1003.18
2023-02-03T00:11:15.298Z,1003.15
2023-02-03T00:12:15.301Z,1003.14
2023-02-03T00:13:15.299Z,1003.10
2023-02-03T00:14:15.295Z,1003.09
2023-02-03T00:15:15.256Z,1003.11
2023-02-03T00:16:15.311Z,1003.12
2023-02-03T00:17:15.226Z,1003.03
2023-02-03T00:18:15.251Z,1003.05
2023-02-03T00:19:17.392Z,1003.01
2023-02-03T00:20:15.214Z,1002.95
2023-02-03T00:21:15.189Z,1002.97
2023-02-03T00:22:15.179Z,1002.96
2023-02-03T00:23:15.197Z,1002.95
2023-02-03T00:24:15.171Z,1003.04
2023-02-03T00:25:15.156Z,1003.00
2023-02-03T00:26:15.145Z,1002.87
2023-02-03T00:27:15.131Z,1002.89
2023-02-03T00:28:15.193Z,1002.85
2023-02-03T00:29:15.116Z,1002.79
2023-02-03T00:30:15.119Z,1002.74
2023-02-03T00:31:15.178Z,1002.72
2023-02-03T00:32:15.154Z,1002.73
2023-02-03T00:33:15.093Z,1002.70
2023-02-03T00:34:15.073Z,1002.65
2023-02-03T00:35:15.069Z,1002.62
2023-02-03T00:36:15.044Z,1002.64
2023-02-03T00:37:15.024Z,1002.75
2023-02-03T00:38:15.035Z,1002.89
2023-02-03T00:39:15.004Z,1002.93
2023-02-03T00:40:15.004Z,1002.89
2023-02-03T00:41:14.993Z,1002.95
2023-02-03T00:42:14.985Z,1002.84
2023-02-03T00:43:14.985Z,1002.82
2023-02-03T00:44:14.975Z,1002.78
2023-02-03T00:45:14.947Z,1002.80
2023-02-03T00:46:15.043Z,1002.76
2023-02-03T00:47:14.937Z,1002.71
2023-02-03T00:48:14.948Z,1002.76
2023-02-03T00:49:14.907Z,1002.72
2023-02-03T00:50:14.910Z,1002.72
2023-02-03T00:51:14.896Z,1002.71
2023-02-03T00:52:14.877Z,1002.70
2023-02-03T00:53:14.903Z,1002.71
2023-02-03T00:54:14.866Z,1002.65
2023-02-03T00:55:14.847Z,1002.63
2023-02-03T00:56:14.839Z,1002.55
2023-02-03T00:57:14.832Z,1002.62
2023-02-03T00:58:14.818Z,1002.61
2023-02-03T00:59:14.820Z,1002.60
2023-02-03T01:00:14.798Z,1002.57
2023-02-03T01:01:14.826Z,1002.58
2023-02-03T01:02:14.857Z,1002.53
2023-02-03T01:03:14.776Z,1002.56
2023-02-03T01:04:14.780Z,1002.55
2023-02-03T01:05:14.754Z,1002.58
2023-02-03T01:06:14.745Z,1002.55
2023-02-03T01:07:14.736Z,1002.50
2023-02-03T01:08:14.724Z,1002.52
2023-02-03T01:09:14.724Z,1002.54
2023-02-03T01:10:14.706Z,1002.55
2023-02-03T01:11:14.699Z,1002.54
2023-02-03T01:12:14.675Z,1002.48
2023-02-03T01:13:14.668Z,1002.50
2023-02-03T01:14:14.686Z,1002.52
2023-02-03T01:15:14.653Z,1002.52
2023-02-03T01:16:14.688Z,1002.51
2023-02-03T01:17:14.628Z,1002.53
2023-02-03T01:18:14.622Z,1002.49
2023-02-03T01:19:14.625Z,1002.51
2023-02-03T01:20:14.600Z,1002.47
2023-02-03T01:21:14.590Z,1002.54
2023-02-03T01:22:14.578Z,1002.47
2023-02-03T01:23:14.567Z,1002.50
2023-02-03T01:24:14.585Z,1002.56
2023-02-03T01:25:14.556Z,1002.56
2023-02-03T01:26:14.543Z,1002.59
2023-02-03T01:27:14.525Z,1002.56
2023-02-03T01:28:14.627Z,1002.53
2023-02-03T01:29:14.535Z,1002.62
2023-02-03T01:30:14.504Z,1002.65
2023-02-03T01:31:14.593Z,1002.66
2023-02-03T01:32:14.483Z,1002.62
2023-02-03T01:33:14.474Z,1002.61
2023-02-03T01:34:14.470Z,1002.64
2023-02-03T01:35:14.456Z,1002.69
2023-02-03T01:36:14.441Z,1002.66
2023-02-03T01:37:14.428Z,1002.74
2023-02-03T01:38:14.455Z,1002.73
2023-02-03T01:39:14.436Z,1002.74
2023-02-03T01:40:14.398Z,1002.69
2023-02-03T01:41:14.382Z,1002.69
2023-02-03T01:42:14.387Z,1002.68
2023-02-03T01:43:14.365Z,1002.58
2023-02-03T01:44:14.380Z,1002.57
2023-02-03T01:45:14.391Z,1002.58
2023-02-03T01:46:14.354Z,1002.64
2023-02-03T01:47:14.327Z,1002.58
2023-02-03T01:48:14.329Z,1002.65
2023-02-03T01:49:14.345Z,1002.70
2023-02-03T01:50:14.298Z,1002.73
2023-02-03T01:51:14.284Z,1002.67
2023-02-03T01:52:14.283Z,1002.67
2023-02-03T01:53:14.281Z,1002.71
2023-02-03T01:54:14.268Z,1002.67
2023-02-03T01:55:14.247Z,1002.64
2023-02-03T01:56:14.242Z,1002.53
2023-02-03T01:57:14.240Z,1002.59
2023-02-03T01:58:14.232Z,1002.61
2023-02-03T01:59:14.220Z,1002.58
2023-02-03T02:00:14.199Z,1002.51
2023-02-03T02:01:14.249Z,1002.49
2023-02-03T02:02:14.239Z,1002.47
2023-02-03T02:03:14.159Z,1002.45
2023-02-03T02:04:14.170Z,1002.55
2023-02-03T02:05:14.141Z,1002.56
2023-02-03T02:06:14.150Z,1002.60
2023-02-03T02:07:14.122Z,1002.55
2023-02-03T02:08:14.112Z,1002.48
2023-02-03T02:09:14.120Z,1002.49
2023-02-03T02:10:14.092Z,1002.50
2023-02-03T02:11:14.083Z,1002.50
2023-02-03T02:12:14.082Z,1002.54
2023-02-03T02:13:14.075Z,1002.55
2023-02-03T02:14:14.073Z,1002.50
2023-02-03T02:15:14.053Z,1002.55
2023-02-03T02:16:14.089Z,1002.64
2023-02-03T02:17:14.020Z,1002.72
2023-02-03T02:18:14.027Z,1002.72
2023-02-03T02:19:14.024Z,1002.70
2023-02-03T02:20:13.995Z,1002.69
2023-02-03T02:21:13.991Z,1002.71
2023-02-03T02:22:13.973Z,1002.66
2023-02-03T02:23:13.955Z,1002.65
2023-02-03T02:24:13.976Z,1002.60
2023-02-03T02:25:13.955Z,1002.57
2023-02-03T02:26:13.937Z,1002.51
2023-02-03T02:27:13.917Z,1002.51
2023-02-03T02:28:13.952Z,1002.47
2023-02-03T02:29:13.919Z,1002.54
2023-02-03T02:30:13.887Z,1002.55
2023-02-03T02:31:14.019Z,1002.59
2023-02-03T02:32:13.869Z,1002.52
2023-02-03T02:33:13.865Z,1002.49
2023-02-03T02:34:13.890Z,1002.63
2023-02-03T02:35:13.837Z,1002.44
2023-02-03T02:36:13.831Z,1002.47
2023-02-03T02:37:13.818Z,1002.49
2023-02-03T02:38:13.818Z,1002.48
2023-02-03T02:39:13.828Z,1002.45
2023-02-03T02:40:13.792Z,1002.40
2023-02-03T02:41:13.783Z,1002.37
2023-02-03T02:42:13.774Z,1002.33
2023-02-03T02:43:13.766Z,1002.35
2023-02-03T02:44:13.762Z,1002.33
2023-02-03T02:45:13.737Z,1002.28
2023-02-03T02:46:13.723Z,1002.22
2023-02-03T02:47:13.713Z,1002.25
2023-02-03T02:48:13.719Z,1002.23
2023-02-03T02:49:13.714Z,1002.31
2023-02-03T02:50:13.685Z,1002.28
2023-02-03T02:51:13.674Z,1002.30
2023-02-03T02:52:13.675Z,1002.18
2023-02-03T02:53:13.655Z,1002.16
2023-02-03T02:54:13.667Z,1002.17
2023-02-03T02:55:13.642Z,1002.11
2023-02-03T02:56:15.544Z,1002.16
2023-02-03T02:57:13.610Z,1002.18
2023-02-03T02:58:13.606Z,1002.23
2023-02-03T02:59:13.620Z,1002.19
2023-02-03T03:00:13.586Z,1002.15
2023-02-03T03:01:13.595Z,1002.13
2023-02-03T03:02:13.569Z,1002.01
2023-02-03T03:03:13.584Z,1002.00
2023-02-03T03:04:13.559Z,1001.90
2023-02-03T03:05:13.586Z,1001.84
2023-02-03T03:06:13.523Z,1001.77
2023-02-03T03:07:13.511Z,1001.57
2023-02-03T03:08:13.523Z,1001.55
2023-02-03T03:09:13.503Z,1001.51
2023-02-03T03:10:13.492Z,1001.42
2023-02-03T03:11:13.473Z,1001.43
2023-02-03T03:12:13.473Z,1001.53
2023-02-03T03:13:13.464Z,1001.54
2023-02-03T03:14:13.456Z,1001.66
2023-02-03T03:15:13.458Z,1001.68
2023-02-03T03:16:13.474Z,1001.68
2023-02-03T03:17:13.407Z,1001.76
2023-02-03T03:18:13.425Z,1001.70
2023-02-03T03:19:13.395Z,1001.64
2023-02-03T03:20:13.403Z,1001.53
2023-02-03T03:21:13.377Z,1001.53
2023-02-03T03:22:13.404Z,1001.54
2023-02-03T03:23:13.353Z,1001.58
2023-02-03T03:24:13.335Z,1001.57
2023-02-03T03:25:13.343Z,1001.60
2023-02-03T03:26:13.363Z,1001.70
2023-02-03T03:27:13.305Z,1001.73
2023-02-03T03:28:13.324Z,1001.86
2023-02-03T03:29:13.287Z,1001.94
2023-02-03T03:30:13.304Z,1002.00
2023-02-03T03:31:13.394Z,1002.16
2023-02-03T03:32:13.267Z,1002.21
2023-02-03T03:33:13.245Z,1002.30
2023-02-03T03:34:13.258Z,1002.35
2023-02-03T03:35:13.250Z,1002.44
2023-02-03T03:36:13.218Z,1002.33
2023-02-03T03:37:13.207Z,1002.27
2023-02-03T03:38:13.209Z,1002.18
2023-02-03T03:39:13.182Z,1002.21
2023-02-03T03:40:13.199Z,1002.24
2023-02-03T03:41:13.160Z,1002.17
2023-02-03T03:42:13.160Z,1002.23
2023-02-03T03:43:13.151Z,1002.29
2023-02-03T03:44:13.145Z,1002.34
2023-02-03T03:45:13.143Z,1002.36
2023-02-03T03:46:13.123Z,1002.36
2023-02-03T03:47:13.126Z,1002.38
2023-02-03T03:48:13.106Z,1002.36
2023-02-03T03:49:13.091Z,1002.38
2023-02-03T03:50:13.097Z,1002.42
2023-02-03T03:51:13.070Z,1002.44
2023-02-03T03:52:13.059Z,1002.44
2023-02-03T03:53:13.045Z,1002.35
2023-02-03T03:54:13.034Z,1002.38
2023-02-03T03:55:13.034Z,1002.41
2023-02-03T03:56:13.022Z,1002.31
2023-02-03T03:57:13.001Z,1002.29
2023-02-03T03:58:12.995Z,1002.31
2023-02-03T03:59:12.978Z,1002.32
2023-02-03T04:00:12.986Z,1002.29
2023-02-03T04:01:13.012Z,1002.17
2023-02-03T04:02:13.080Z,1002.11
2023-02-03T04:03:12.954Z,1002.17
2023-02-03T04:04:12.928Z,1002.11
2023-02-03T04:05:12.929Z,1002.11
2023-02-03T04:06:12.915Z,1002.05
2023-02-03T04:07:12.898Z,1001.98
2023-02-03T04:08:12.892Z,1001.78
2023-02-03T04:09:12.878Z,1001.69
2023-02-03T04:10:12.890Z,1001.84
2023-02-03T04:11:12.851Z,1001.88
2023-02-03T04:12:12.851Z,1001.93
2023-02-03T04:13:12.835Z,1001.98
2023-02-03T04:14:12.838Z,1001.93
2023-02-03T04:15:12.833Z,1001.84
2023-02-03T04:16:12.844Z,1001.86
2023-02-03T04:17:12.791Z,1001.88
2023-02-03T04:18:12.792Z,1001.73
2023-02-03T04:19:12.776Z,1001.67
2023-02-03T04:20:12.796Z,1001.80
2023-02-03T04:21:12.752Z,1001.78
2023-02-03T04:22:12.753Z,1001.83
2023-02-03T04:23:12.734Z,1001.81
2023-02-03T04:24:12.724Z,1001.86
2023-02-03T04:25:12.733Z,1001.78
2023-02-03T04:26:12.694Z,1001.75
2023-02-03T04:27:12.694Z,1001.75
2023-02-03T04:28:12.699Z,1001.79
2023-02-03T04:29:12.674Z,1001.83
2023-02-03T04:30:12.676Z,1001.76
2023-02-03T04:31:12.691Z,1001.68
2023-02-03T04:32:12.651Z,1001.78
2023-02-03T04:33:12.635Z,1001.71
2023-02-03T04:34:12.621Z,1001.61
2023-02-03T04:35:12.631Z,1001.70
2023-02-03T04:36:12.598Z,1001.67
2023-02-03T04:37:12.590Z,1001.59
2023-02-03T04:38:12.574Z,1001.53
2023-02-03T04:39:12.582Z,1001.50
2023-02-03T04:40:12.575Z,1001.45
2023-02-03T04:41:12.559Z,1001.53
2023-02-03T04:42:12.547Z,1001.42
2023-02-03T04:43:12.531Z,1001.46
2023-02-03T04:44:12.511Z,1001.43
2023-02-03T04:45:12.538Z,1001.51
2023-02-03T04:46:12.549Z,1001.37
2023-02-03T04:47:12.489Z,1001.36
2023-02-03T04:48:12.475Z,1001.29
2023-02-03T04:49:12.475Z,1001.34
2023-02-03T04:50:12.468Z,1001.32
2023-02-03T04:51:12.472Z,1001.27
2023-02-03T04:52:12.432Z,1001.24
2023-02-03T04:53:14.042Z,1001.28
2023-02-03T04:54:12.411Z,1001.23
2023-02-03T04:55:12.424Z,1001.16
2023-02-03T04:56:12.394Z,1001.09
2023-02-03T04:57:12.389Z,1001.14
2023-02-03T04:58:12.367Z,1001.02
2023-02-03T04:59:12.363Z,1001.06
2023-02-03T05:00:12.376Z,1001.11
2023-02-03T05:01:12.450Z,1001.21
2023-02-03T05:02:12.328Z,1001.25
2023-02-03T05:03:12.387Z,1001.18
2023-02-03T05:04:12.313Z,1001.19
2023-02-03T05:05:12.323Z,1001.21
2023-02-03T05:06:12.305Z,1001.26
2023-02-03T05:07:12.283Z,1001.24
2023-02-03T05:08:12.268Z,1001.25
2023-02-03T05:09:12.264Z,1001.25
2023-02-03T05:10:12.268Z,1001.16
2023-02-03T05:11:12.249Z,1001.26
2023-02-03T05:12:12.229Z,1001.32
2023-02-03T05:13:12.224Z,1001.26
2023-02-03T05:14:12.220Z,1001.24
2023-02-03T05:15:12.218Z,1001.33
2023-02-03T05:16:12.199Z,1001.31
2023-02-03T05:17:12.203Z,1001.27
2023-02-03T05:18:12.161Z,1001.30
2023-02-03T05:19:12.154Z,1001.25
2023-02-03T05:20:12.160Z,1001.13
2023-02-03T05:21:12.137Z,1001.14
2023-02-03T05:22:12.141Z,1001.16
2023-02-03T05:23:12.123Z,1001.18
2023-02-03T05:24:12.113Z,1001.18
2023-02-03T05:25:12.126Z,1001.24
2023-02-03T05:26:12.108Z,1001.28
2023-02-03T05:27:12.079Z,1001.28
2023-02-03T05:28:12.144Z,1001.33
2023-02-03T05:29:12.059Z,1001.29
2023-02-03T05:30:12.069Z,1001.22
2023-02-03T05:31:12.073Z,1001.20
2023-02-03T05:32:12.080Z,1001.15
2023-02-03T05:33:12.022Z,1001.11
2023-02-03T05:34:12.009Z,1001.11
2023-02-03T05:35:12.020Z,1001.00
2023-02-03T05:36:11.984Z,1001.06
2023-02-03T05:37:12.003Z,1001.05
2023-02-03T05:38:11.975Z,1001.05
2023-02-03T05:39:11.966Z,1001.09
2023-02-03T05:40:11.960Z,1000.99
2023-02-03T05:41:11.951Z,1000.95
2023-02-03T05:42:11.918Z,1000.95
2023-02-03T05:43:11.909Z,1000.97
2023-02-03T05:44:11.913Z,1000.89
2023-02-03T05:45:11.928Z,1000.89
2023-02-03T05:46:12.011Z,1000.89
2023-02-03T05:47:11.873Z,1000.92
2023-02-03T05:48:11.858Z,1000.93
2023-02-03T05:49:11.863Z,1001.02
2023-02-03T05:50:11.851Z,1000.99
2023-02-03T05:51:11.852Z,1001.00
2023-02-03T05:52:11.825Z,1001.07
2023-02-03T05:53:11.816Z,1000.98
2023-02-03T05:54:11.794Z,1000.94
2023-02-03T05:55:11.812Z,1000.99
2023-02-03T05:56:11.826Z,1001.08
2023-02-03T05:57:11.782Z,1001.11
2023-02-03T05:58:11.757Z,1000.99
2023-02-03T05:59:11.754Z,1001.13
2023-02-03T06:00:11.760Z,1001.04
2023-02-03T06:01:11.756Z,1000.90
2023-02-03T06:02:11.717Z,1001.06
2023-02-03T06:03:11.744Z,1000.86
2023-02-03T06:04:11.902Z,1001.03
2023-02-03T06:05:11.704Z,1001.06
2023-02-03T06:06:11.677Z,1000.94
2023-02-03T06:07:11.669Z,1000.98
2023-02-03T06:08:11.666Z,1000.99
2023-02-03T06:09:11.652Z,1000.95
2023-02-03T06:10:11.648Z,1000.89
2023-02-03T06:11:11.620Z,1000.90
2023-02-03T06:12:11.614Z,1000.88
2023-02-03T06:13:11.600Z,1000.88
2023-02-03T06:14:11.604Z,1000.91
2023-02-03T06:15:11.601Z,1000.97
2023-02-03T06:16:11.655Z,1000.92
2023-02-03T06:17:11.571Z,1000.90
2023-02-03T06:18:11.542Z,1000.92
2023-02-03T06:19:11.551Z,1000.97
2023-02-03T06:20:11.548Z,1000.94
2023-02-03T06:21:11.518Z,1000.89
2023-02-03T06:22:11.504Z,1000.85
2023-02-03T06:23:11.514Z,1000.90
2023-02-03T06:24:11.498Z,1000.92
2023-02-03T06:25:13.166Z,1000.82
2023-02-03T06:26:11.462Z,1000.86
2023-02-03T06:27:11.460Z,1000.88
2023-02-03T06:28:11.500Z,1000.84
2023-02-03T06:29:11.452Z,1000.92
2023-02-03T06:30:11.454Z,1000.90
2023-02-03T06:31:11.551Z,1000.94
2023-02-03T06:32:11.416Z,1000.98
2023-02-03T06:33:11.398Z,1001.00
2023-02-03T06:34:11.378Z,1000.92
2023-02-03T06:35:11.394Z,1000.95
2023-02-03T06:36:11.373Z,1000.92
2023-02-03T06:37:11.366Z,1000.82
2023-02-03T06:38:11.346Z,1000.77
2023-02-03T06:39:11.349Z,1000.80
2023-02-03T06:40:11.344Z,1000.78
2023-02-03T06:41:11.323Z,1000.75
2023-02-03T06:42:11.298Z,1000.77
2023-02-03T06:43:11.293Z,1000.72
2023-02-03T06:44:11.278Z,1000.81
2023-02-03T06:45:11.294Z,1000.96
2023-02-03T06:46:11.284Z,1000.90
2023-02-03T06:47:11.261Z,1000.83
2023-02-03T06:48:11.389Z,1000.84
2023-02-03T06:49:11.238Z,1000.87
2023-02-03T06:50:11.234Z,1000.75
2023-02-03T06:51:11.216Z,1000.76
2023-02-03T06:52:11.195Z,1000.84
2023-02-03T06:53:11.189Z,1000.85
2023-02-03T06:54:11.186Z,1000.81
2023-02-03T06:55:11.195Z,1000.86
2023-02-03T06:56:11.114Z,1000.86
2023-02-03T06:57:11.104Z,1000.83
2023-02-03T06:58:11.085Z,1000.75
2023-02-03T06:59:11.084Z,1000.84
2023-02-03T07:00:13.609Z,1000.80
2023-02-03T07:01:11.181Z,1000.81
2023-02-03T07:02:11.095Z,1000.88
2023-02-03T07:03:11.094Z,1000.85
2023-02-03T07:04:11.092Z,1000.78
2023-02-03T07:05:11.089Z,1000.86
2023-02-03T07:06:11.046Z,1000.86
2023-02-03T07:07:11.047Z,1000.82
2023-02-03T07:08:11.027Z,1000.77
2023-02-03T07:09:10.989Z,1000.83
2023-02-03T07:10:10.981Z,1000.89
2023-02-03T07:11:10.966Z,1000.75
2023-02-03T07:12:10.988Z,1000.87
2023-02-03T07:13:10.989Z,1000.88
2023-02-03T07:14:10.909Z,1000.94
2023-02-03T07:15:10.987Z,1000.87
2023-02-03T07:16:10.955Z,1000.92
2023-02-03T07:17:10.889Z,1000.86
2023-02-03T07:18:11.828Z,1000.78
2023-02-03T07:19:10.874Z,1000.85
2023-02-03T07:20:10.873Z,1000.85
2023-02-03T07:21:10.843Z,1000.73
2023-02-03T07:22:10.845Z,1000.67
2023-02-03T07:23:10.830Z,1000.74
2023-02-03T07:24:10.823Z,1000.76
2023-02-03T07:25:10.823Z,1000.73
2023-02-03T07:26:10.797Z,1000.81
2023-02-03T07:27:10.795Z,1000.76
2023-02-03T07:28:10.858Z,1000.73
2023-02-03T07:29:10.765Z,1000.69
2023-02-03T07:30:10.778Z,1000.78
2023-02-03T07:31:10.968Z,1000.64
2023-02-03T07:32:10.777Z,1000.62
2023-02-03T07:33:10.728Z,1000.64
2023-02-03T07:34:10.737Z,1000.64
2023-02-03T07:35:10.716Z,1000.69
2023-02-03T07:36:10.697Z,1000.66
2023-02-03T07:37:10.706Z,1000.66
2023-02-03T07:38:10.660Z,1000.62
2023-02-03T07:39:10.656Z,1000.59
2023-02-03T07:40:10.667Z,1000.64
2023-02-03T07:41:10.671Z,1000.64
2023-02-03T07:42:10.646Z,1000.67
2023-02-03T07:43:10.627Z,1000.59
2023-02-03T07:44:10.604Z,1000.51
2023-02-03T07:45:10.629Z,1000.46
2023-02-03T07:46:10.634Z,1000.57
2023-02-03T07:47:12.555Z,1000.57
2023-02-03T07:48:10.569Z,1000.58
2023-02-03T07:49:10.577Z,1000.58
2023-02-03T07:50:10.580Z,1000.41
2023-02-03T07:51:10.640Z,1000.47
2023-02-03T07:52:10.526Z,1000.52
2023-02-03T07:53:10.544Z,1000.54
2023-02-03T07:54:10.523Z,1000.52
2023-02-03T07:55:10.533Z,1000.54
2023-02-03T07:56:10.484Z,1000.62
2023-02-03T07:57:10.483Z,1000.72
2023-02-03T07:58:10.469Z,1000.60
2023-02-03T07:59:10.466Z,1000.66
2023-02-03T08:00:10.457Z,1000.61
2023-02-03T08:01:10.438Z,1000.65
2023-02-03T08:02:10.457Z,1000.65
2023-02-03T08:03:10.425Z,1000.57
2023-02-03T08:04:10.401Z,1000.59
2023-02-03T08:05:10.507Z,1000.57
2023-02-03T08:06:10.396Z,1000.48
2023-02-03T08:07:10.379Z,1000.58
2023-02-03T08:08:10.439Z,1000.69
2023-02-03T08:09:10.353Z,1000.53
2023-02-03T08:10:10.365Z,1000.60
2023-02-03T08:11:10.341Z,1000.55
2023-02-03T08:12:10.321Z,1000.49
2023-02-03T08:13:10.307Z,1000.60
2023-02-03T08:14:10.298Z,1000.61
2023-02-03T08:15:10.298Z,1000.61
2023-02-03T08:16:10.330Z,1000.69
2023-02-03T08:17:10.269Z,1000.73
2023-02-03T08:18:10.259Z,1000.76
2023-02-03T08:19:10.251Z,1000.65
2023-02-03T08:20:10.245Z,1000.72
2023-02-03T08:21:10.241Z,1000.77
2023-02-03T08:22:10.235Z,1000.70
2023-02-03T08:23:10.223Z,1000.59
2023-02-03T08:24:10.206Z,1000.53
2023-02-03T08:25:10.202Z,1000.59
2023-02-03T08:26:10.193Z,1000.56
2023-02-03T08:27:10.173Z,1000.59
2023-02-03T08:28:10.225Z,1000.65
2023-02-03T08:29:10.144Z,1000.59
2023-02-03T08:30:10.144Z,1000.57
2023-02-03T08:31:10.300Z,1000.61
2023-02-03T08:32:10.160Z,1000.67
2023-02-03T08:33:10.105Z,1000.58
2023-02-03T08:34:10.115Z,1000.60
2023-02-03T08:35:10.086Z,1000.55
2023-02-03T08:36:10.088Z,1000.56
2023-02-03T08:37:10.152Z,1000.38
2023-02-03T08:38:10.046Z,1000.38
2023-02-03T08:39:10.045Z,1000.31
2023-02-03T08:40:10.048Z,1000.32
2023-02-03T08:41:10.038Z,1000.38
2023-02-03T08:42:10.026Z,1000.35
2023-02-03T08:43:10.005Z,1000.42
2023-02-03T08:44:09.996Z,1000.34
2023-02-03T08:45:09.989Z,1000.33
2023-02-03T08:46:10.730Z,1000.35
2023-02-03T08:47:09.970Z,1000.30
2023-02-03T08:48:09.951Z,1000.14
2023-02-03T08:49:09.959Z,1000.26
2023-02-03T08:50:09.937Z,1000.22
2023-02-03T08:51:09.938Z,1000.27
2023-02-03T08:52:09.910Z,1000.23
2023-02-03T08:53:09.911Z,1000.27
2023-02-03T08:54:09.891Z,1000.26
2023-02-03T08:55:09.871Z,1000.31
2023-02-03T08:56:09.892Z,1000.21
2023-02-03T08:57:09.880Z,1000.31
2023-02-03T08:58:09.865Z,1000.28
2023-02-03T08:59:09.839Z,1000.33
2023-02-03T09:00:09.824Z,1000.16
2023-02-03T09:01:09.868Z,1000.35
2023-02-03T09:02:09.812Z,1000.30
2023-02-03T09:03:09.794Z,1000.31
2023-02-03T09:04:09.797Z,1000.23
2023-02-03T09:05:09.999Z,1000.32
2023-02-03T09:06:09.793Z,1000.26
2023-02-03T09:07:09.754Z,1000.28
2023-02-03T09:08:09.756Z,1000.30
2023-02-03T09:09:09.738Z,1000.23
2023-02-03T09:10:09.742Z,1000.32
2023-02-03T09:11:09.727Z,1000.24
2023-02-03T09:12:09.706Z,1000.26
2023-02-03T09:13:09.691Z,1000.26
2023-02-03T09:14:09.687Z,1000.22
2023-02-03T09:15:09.678Z,1000.10
2023-02-03T09:16:09.774Z,1000.26
2023-02-03T09:17:09.680Z,1000.19
2023-02-03T09:18:09.644Z,1000.35
2023-02-03T09:19:09.652Z,1000.26
2023-02-03T09:20:09.645Z,1000.41
2023-02-03T09:21:10.086Z,1000.32
2023-02-03T09:22:09.603Z,1000.27
2023-02-03T09:23:09.592Z,1000.33
2023-02-03T09:24:09.592Z,1000.29
2023-02-03T09:25:09.579Z,1000.27
2023-02-03T09:26:09.583Z,1000.27
2023-02-03T09:27:09.554Z,1000.32
2023-02-03T09:28:09.636Z,1000.31
2023-02-03T09:29:09.532Z,1000.20
2023-02-03T09:30:09.521Z,1000.26
2023-02-03T09:31:09.623Z,1000.23
2023-02-03T09:32:09.567Z,1000.17
2023-02-03T09:33:09.499Z,1000.13
2023-02-03T09:34:09.507Z,1000.13
2023-02-03T09:35:09.510Z,1000.08
2023-02-03T09:36:09.475Z,1000.04
2023-02-03T09:37:09.472Z,999.96
2023-02-03T09:38:09.437Z,999.94
2023-02-03T09:39:09.426Z,999.99
2023-02-03T09:40:09.419Z,1000.03
2023-02-03T09:41:11.909Z,1000.04
2023-02-03T09:42:09.400Z,999.99
2023-02-03T09:43:09.471Z,1000.17
2023-02-03T09:44:09.379Z,1000.15
2023-02-03T09:45:09.359Z,1000.20
2023-02-03T09:46:09.436Z,1000.14
2023-02-03T09:47:09.364Z,1000.17
2023-02-03T09:48:09.391Z,1000.22
2023-02-03T09:49:09.326Z,1000.09
2023-02-03T09:50:09.309Z,1000.07
2023-02-03T09:51:09.319Z,1000.02
2023-02-03T09:52:09.311Z,999.93
2023-02-03T09:53:09.288Z,1000.13
2023-02-03T09:54:09.271Z,999.93
2023-02-03T09:55:09.261Z,999.99
2023-02-03T09:56:09.273Z,1000.00
2023-02-03T09:57:18.124Z,1000.10
2023-02-03T09:58:09.231Z,1000.06
2023-02-03T09:59:09.217Z,1000.15
2023-02-03T10:00:09.216Z,1000.07
2023-02-03T10:01:09.278Z,1000.28
2023-02-03T10:02:09.250Z,1000.24
2023-02-03T10:03:09.176Z,1000.12
2023-02-03T10:04:09.167Z,1000.24
2023-02-03T10:05:09.166Z,1000.34
2023-02-03T10:06:09.191Z,1000.32
2023-02-03T10:07:09.141Z,1000.23
2023-02-03T10:08:09.131Z,1000.44
2023-02-03T10:09:09.130Z,1000.39
2023-02-03T10:10:09.115Z,1000.29
2023-02-03T10:11:09.115Z,1000.35
2023-02-03T10:12:09.090Z,1000.42
2023-02-03T10:13:09.087Z,1000.33
2023-02-03T10:14:09.067Z,1000.39
2023-02-03T10:15:09.068Z,1000.38
2023-02-03T10:16:09.069Z,1000.44
2023-02-03T10:17:09.081Z,1000.52
2023-02-03T10:18:09.031Z,1000.49
2023-02-03T10:19:09.011Z,1000.49
2023-02-03T10:20:09.014Z,1000.56
2023-02-03T10:21:09.014Z,1000.43
2023-02-03T10:22:08.992Z,1000.30
2023-02-03T10:23:08.976Z,1000.33
2023-02-03T10:24:08.971Z,1000.29
2023-02-03T10:25:08.953Z,1000.28
2023-02-03T10:26:08.966Z,1000.23
2023-02-03T10:27:08.944Z,1000.28
2023-02-03T10:28:09.001Z,1000.27
2023-02-03T10:29:08.917Z,1000.20
2023-02-03T10:30:08.905Z,1000.27
2023-02-03T10:31:08.980Z,1000.47
2023-02-03T10:32:09.002Z,1000.40
2023-02-03T10:33:08.882Z,1000.20
2023-02-03T10:34:08.875Z,1000.47
2023-02-03T10:35:08.848Z,1000.21
2023-02-03T10:36:08.858Z,1000.42
2023-02-03T10:37:08.828Z,1000.45
2023-02-03T10:38:08.837Z,1000.29
2023-02-03T10:39:08.810Z,1000.26
2023-02-03T10:40:08.807Z,1000.21
2023-02-03T10:41:08.853Z,1000.15
2023-02-03T10:42:08.800Z,999.91
2023-02-03T10:43:08.768Z,1000.04
2023-02-03T10:44:08.775Z,999.93
2023-02-03T10:45:08.748Z,999.81
2023-02-03T10:46:08.865Z,999.88
2023-02-03T10:47:08.729Z,999.81
2023-02-03T10:48:08.721Z,1000.02
2023-02-03T10:49:08.711Z,1000.14
2023-02-03T10:50:08.704Z,1000.15
2023-02-03T10:51:08.684Z,1000.01
2023-02-03T10:52:08.733Z,999.90
2023-02-03T10:53:08.673Z,999.99
2023-02-03T10:54:08.663Z,1000.34
2023-02-03T10:55:08.671Z,999.88
2023-02-03T10:56:08.650Z,1000.05
2023-02-03T10:57:08.678Z,999.89
2023-02-03T10:58:08.618Z,1000.05
2023-02-03T10:59:08.603Z,1000.35
2023-02-03T11:00:08.604Z,1000.29
2023-02-03T11:01:08.689Z,1000.17
2023-02-03T11:02:08.606Z,1000.09
2023-02-03T11:03:08.575Z,1000.00
2023-02-03T11:04:08.595Z,999.99
2023-02-03T11:05:08.554Z,1000.09
2023-02-03T11:06:08.536Z,999.94
2023-02-03T11:07:08.536Z,999.91
2023-02-03T11:08:08.524Z,999.95
2023-02-03T11:09:08.505Z,1000.15
2023-02-03T11:10:08.502Z,1000.11
2023-02-03T11:11:08.496Z,1000.08
2023-02-03T11:12:08.505Z,1000.03
2023-02-03T11:13:08.467Z,999.89
2023-02-03T11:14:08.459Z,999.90
2023-02-03T11:15:08.441Z,999.99
2023-02-03T11:16:08.564Z,999.87
2023-02-03T11:17:08.437Z,999.92
2023-02-03T11:18:08.410Z,999.89
2023-02-03T11:19:08.411Z,999.78
2023-02-03T11:20:08.404Z,999.90
2023-02-03T11:21:08.383Z,999.73
2023-02-03T11:22:08.397Z,999.87
2023-02-03T11:23:08.363Z,999.80
2023-02-03T11:24:08.384Z,999.88
2023-02-03T11:25:08.341Z,999.96
2023-02-03T11:26:08.334Z,999.86
2023-02-03T11:27:08.338Z,999.82
2023-02-03T11:28:08.395Z,999.85
2023-02-03T11:29:08.360Z,999.76
2023-02-03T11:30:08.294Z,999.88
2023-02-03T11:31:08.413Z,999.76
2023-02-03T11:32:08.326Z,999.80
2023-02-03T11:33:08.256Z,999.92
2023-02-03T11:34:08.254Z,999.92
2023-02-03T11:35:08.235Z,999.71
2023-02-03T11:36:08.230Z,999.66
2023-02-03T11:37:08.239Z,999.84
2023-02-03T11:38:08.217Z,999.72
2023-02-03T11:39:08.190Z,999.72
2023-02-03T11:40:08.185Z,999.66
2023-02-03T11:41:08.169Z,999.75
2023-02-03T11:42:08.189Z,999.67
2023-02-03T11:43:08.149Z,999.49
2023-02-03T11:44:08.151Z,999.62
2023-02-03T11:45:08.129Z,999.72
2023-02-03T11:46:08.203Z,999.61
2023-02-03T11:47:08.132Z,999.70
2023-02-03T11:48:08.123Z,999.80
2023-02-03T11:49:08.095Z,999.55
2023-02-03T11:50:08.091Z,999.85
2023-02-03T11:51:08.090Z,999.63
2023-02-03T11:52:08.083Z,999.65
2023-02-03T11:53:08.050Z,999.65
2023-02-03T11:54:08.068Z,999.62
2023-02-03T11:55:08.023Z,999.62
2023-02-03T11:56:08.026Z,999.64
2023-02-03T11:57:08.024Z,999.74
2023-02-03T11:58:08.011Z,999.71
2023-02-03T11:59:07.986Z,999.71
2023-02-03T12:00:07.984Z,999.65
2023-02-03T12:01:08.010Z,999.66
2023-02-03T12:02:07.987Z,999.76
2023-02-03T12:03:07.982Z,999.95
2023-02-03T12:04:07.984Z,999.81
2023-02-03T12:05:07.948Z,999.85
2023-02-03T12:06:07.925Z,999.85
2023-02-03T12:07:07.934Z,999.70
2023-02-03T12:08:07.903Z,999.87